createdAt,value
2022-12-28T00:01:29.753Z,1.85
2022-12-28T00:03:59.755Z,1.85
2022-12-28T00:06:26.860Z,2.13
2022-12-28T00:08:54.801Z,1.90
2022-12-28T00:11:30.830Z,1.98
2022-12-28T00:14:01.991Z,1.55
2022-12-28T00:16:35.286Z,2.33
2022-12-28T00:19:06.009Z,2.20
2022-12-28T00:21:33.318Z,2.53
2022-12-28T00:24:01.251Z,1.67
2022-12-28T00:26:31.150Z,2.60
2022-12-28T00:29:04.180Z,2.10
2022-12-28T00:31:32.707Z,2.05
2022-12-28T00:33:59.474Z,1.70
2022-12-28T00:37:09.109Z,2.20
2022-12-28T00:39:13.108Z,1.60
2022-12-28T00:41:39.771Z,1.65
2022-12-28T00:44:06.505Z,1.70
2022-12-28T00:46:33.255Z,1.63
2022-12-28T00:48:59.915Z,1.73
2022-12-28T00:51:26.682Z,1.98
2022-12-28T00:53:53.492Z,1.77
2022-12-28T00:56:22.741Z,2.08
2022-12-28T00:58:50.454Z,1.80
2022-12-28T01:01:22.844Z,1.95
2022-12-28T01:03:49.781Z,1.80
2022-12-28T01:06:19.563Z,1.83
2022-12-28T01:08:46.706Z,2.20
2022-12-28T01:11:24.159Z,1.95
2022-12-28T01:13:52.243Z,2.08
2022-12-28T01:16:22.333Z,2.30
2022-12-28T01:18:52.828Z,2.28
2022-12-28T01:21:22.375Z,2.13
2022-12-28T01:23:50.010Z,1.70
2022-12-28T01:26:16.897Z,2.20
2022-12-28T01:28:43.932Z,1.85
2022-12-28T01:31:13.353Z,2.15
2022-12-28T01:33:40.348Z,1.80
2022-12-28T01:36:27.909Z,2.15
2022-12-28T01:38:57.449Z,2.10
2022-12-28T01:41:25.715Z,1.90
2022-12-28T01:43:52.337Z,2.33
2022-12-28T01:46:44.871Z,1.75
2022-12-28T01:49:20.377Z,2.05
2022-12-28T01:51:56.220Z,1.98
2022-12-28T01:54:27.118Z,1.92
2022-12-28T01:56:54.117Z,2.00
2022-12-28T01:59:25.572Z,2.20
2022-12-28T02:01:52.644Z,2.08
2022-12-28T02:04:19.482Z,2.40
2022-12-28T02:06:47.397Z,2.05
2022-12-28T02:09:19.697Z,2.10
2022-12-28T02:11:47.937Z,1.90
2022-12-28T02:14:15.487Z,2.30
2022-12-28T02:16:43.694Z,2.10
2022-12-28T02:19:16.411Z,1.90
2022-12-28T02:22:03.500Z,2.50
2022-12-28T02:25:12.585Z,2.45
2022-12-28T02:27:59.754Z,2.45
2022-12-28T02:30:27.059Z,2.00
2022-12-28T02:35:40.928Z,3.08
2022-12-28T02:40:49.097Z,2.10
2022-12-28T02:43:16.180Z,2.20
2022-12-28T02:59:09.086Z,2.35
2022-12-28T03:02:05.916Z,2.72
2022-12-28T03:04:44.150Z,2.08
2022-12-28T03:07:35.467Z,2.20
2022-12-28T03:10:18.828Z,2.10
2022-12-28T03:13:01.647Z,2.10
2022-12-28T03:15:34.656Z,2.00
2022-12-28T03:18:25.929Z,2.10
2022-12-28T03:21:14.048Z,2.08
2022-12-28T03:24:06.076Z,1.70
2022-12-28T03:26:56.269Z,2.40
2022-12-28T03:29:43.355Z,1.80
2022-12-28T03:32:11.207Z,2.08
2022-12-28T03:34:38.491Z,1.95
2022-12-28T03:37:38.236Z,1.95
2022-12-28T03:40:17.396Z,2.00
2022-12-28T03:43:07.660Z,1.70
2022-12-28T03:45:46.065Z,1.90
2022-12-28T03:48:17.399Z,2.00
2022-12-28T03:50:47.787Z,2.20
2022-12-28T03:53:19.579Z,2.00
2022-12-28T03:55:46.256Z,2.20
2022-12-28T03:58:13.013Z,2.17
2022-12-28T04:00:39.712Z,2.20
2022-12-28T04:03:06.454Z,2.30
2022-12-28T04:05:33.586Z,2.15
2022-12-28T04:08:00.305Z,2.40
2022-12-28T04:10:27.052Z,2.53
2022-12-28T04:12:57.146Z,2.22
2022-12-28T04:15:24.123Z,2.20
2022-12-28T04:17:51.414Z,2.30
2022-12-28T04:20:18.096Z,2.72
2022-12-28T04:22:44.845Z,2.70
2022-12-28T04:25:13.016Z,2.97
2022-12-28T04:27:39.705Z,2.60
2022-12-28T04:30:07.208Z,3.15
2022-12-28T04:32:33.933Z,2.78
2022-12-28T04:35:00.599Z,3.20
2022-12-28T04:37:27.421Z,3.05
2022-12-28T04:39:56.588Z,3.72
2022-12-28T04:42:25.804Z,3.58
2022-12-28T04:44:52.628Z,3.53
2022-12-28T04:47:19.315Z,4.25
2022-12-28T04:49:46.126Z,3.58
2022-12-28T04:52:12.918Z,4.00
2022-12-28T04:54:39.636Z,3.80
2022-12-28T04:57:07.068Z,4.35
2022-12-28T04:59:33.983Z,4.47
2022-12-28T05:02:01.064Z,4.15
2022-12-28T05:04:27.911Z,4.00
2022-12-28T05:06:54.660Z,4.20
2022-12-28T05:09:21.434Z,4.07
2022-12-28T05:11:48.411Z,4.57
2022-12-28T05:14:15.308Z,4.20
2022-12-28T05:16:44.369Z,4.38
2022-12-28T05:19:11.222Z,4.20
2022-12-28T05:21:39.978Z,4.03
2022-12-28T05:24:07.203Z,4.43
2022-12-28T05:26:36.114Z,4.43
2022-12-28T05:29:03.254Z,4.28
2022-12-28T05:31:30.053Z,4.05
2022-12-28T05:33:56.882Z,4.65
2022-12-28T05:36:26.494Z,4.07
2022-12-28T05:38:54.493Z,4.82
2022-12-28T05:41:24.460Z,4.32
2022-12-28T05:43:51.672Z,4.20
2022-12-28T05:46:27.933Z,4.07
2022-12-28T05:48:57.898Z,4.80
2022-12-28T05:51:31.677Z,4.40
2022-12-28T05:54:00.138Z,4.75
2022-12-28T05:56:29.403Z,4.40
2022-12-28T05:58:58.576Z,4.75
2022-12-28T06:01:28.305Z,4.97
2022-12-28T06:03:57.911Z,4.75
2022-12-28T06:06:25.751Z,5.25
2022-12-28T06:08:52.493Z,4.93
2022-12-28T06:11:21.635Z,5.28
2022-12-28T06:13:48.696Z,5.70
2022-12-28T06:16:24.323Z,5.30
2022-12-28T06:18:52.718Z,5.38
2022-12-28T06:21:21.064Z,5.18
2022-12-28T06:23:48.398Z,5.35
2022-12-28T06:26:18.823Z,6.15
2022-12-28T06:28:46.479Z,5.60
2022-12-28T06:31:18.918Z,4.80
2022-12-28T06:33:46.276Z,5.13
2022-12-28T06:36:19.983Z,5.25
2022-12-28T06:38:49.002Z,5.38
2022-12-28T06:41:17.581Z,5.03
2022-12-28T06:43:45.048Z,4.78
2022-12-28T06:46:13.286Z,4.45
2022-12-28T06:48:41.076Z,4.80
2022-12-28T06:51:13.473Z,4.63
2022-12-28T06:53:40.198Z,4.70
2022-12-28T06:56:10.470Z,4.38
2022-12-28T06:58:37.301Z,3.97
2022-12-28T07:01:16.224Z,4.32
2022-12-28T07:03:44.752Z,3.78
2022-12-28T07:06:13.702Z,3.45
2022-12-28T07:08:40.551Z,3.95
2022-12-28T07:11:10.622Z,3.67
2022-12-28T07:13:37.665Z,3.65
2022-12-28T07:16:06.093Z,2.95
2022-12-28T07:18:33.420Z,3.75
2022-12-28T07:21:27.053Z,3.47
2022-12-28T07:23:55.700Z,3.45
2022-12-28T07:26:25.214Z,2.88
2022-12-28T07:28:54.390Z,3.15
2022-12-28T07:31:23.831Z,2.90
2022-12-28T07:33:52.855Z,2.85
2022-12-28T07:36:20.841Z,2.85
2022-12-28T07:38:48.273Z,2.72
2022-12-28T07:41:17.994Z,3.00
2022-12-28T07:43:45.052Z,3.28
2022-12-28T07:46:14.329Z,3.00
2022-12-28T07:48:41.795Z,2.90
2022-12-28T07:51:10.690Z,2.95
2022-12-28T07:53:38.649Z,3.33
2022-12-28T07:56:06.145Z,3.30
2022-12-28T07:58:33.694Z,2.90
2022-12-28T08:01:21.367Z,2.88
2022-12-28T08:03:56.810Z,2.85
2022-12-28T08:06:24.657Z,2.78
2022-12-28T08:08:54.033Z,3.08
2022-12-28T08:11:23.429Z,2.90
2022-12-28T08:13:52.328Z,2.85
2022-12-28T08:16:20.927Z,3.05
2022-12-28T08:18:49.222Z,2.70
2022-12-28T08:21:26.531Z,2.40
2022-12-28T08:23:53.359Z,2.80
2022-12-28T08:26:33.785Z,2.55
2022-12-28T08:29:06.819Z,3.05
2022-12-28T08:31:36.862Z,2.92
2022-12-28T08:34:05.689Z,2.47
2022-12-28T08:36:32.728Z,2.45
2022-12-28T08:39:01.149Z,2.90
2022-12-28T08:41:29.717Z,2.55
2022-12-28T08:43:56.733Z,2.67
2022-12-28T08:46:27.256Z,2.50
2022-12-28T08:48:56.240Z,2.50
2022-12-28T08:51:30.070Z,2.63
2022-12-28T08:53:56.808Z,2.53
2022-12-28T08:56:29.212Z,2.80
2022-12-28T08:58:57.431Z,2.80
2022-12-28T09:01:29.807Z,2.50
2022-12-28T09:03:59.878Z,2.50
2022-12-28T09:06:30.775Z,2.42
2022-12-28T09:09:07.232Z,2.53
2022-12-28T09:11:39.176Z,2.42
2022-12-28T09:14:08.231Z,3.03
2022-12-28T09:16:35.735Z,2.33
2022-12-28T09:19:04.800Z,2.70
2022-12-28T09:21:33.948Z,2.15
2022-12-28T09:24:01.096Z,2.30
2022-12-28T09:26:31.331Z,2.28
2022-12-28T09:29:00.397Z,2.28
2022-12-28T09:31:29.484Z,2.25
2022-12-28T09:36:49.072Z,2.05
2022-12-28T09:39:23.017Z,1.80
2022-12-28T09:42:00.068Z,2.20
2022-12-28T09:44:41.899Z,1.98
2022-12-28T09:47:08.530Z,1.98
2022-12-28T09:49:47.344Z,2.00
2022-12-28T09:52:13.919Z,2.42
2022-12-28T09:54:41.854Z,2.00
2022-12-28T09:57:18.557Z,2.10
2022-12-28T09:59:47.937Z,2.30
2022-12-28T10:02:37.086Z,2.33
2022-12-28T10:05:06.523Z,2.00
2022-12-28T10:07:33.433Z,1.98
2022-12-28T10:10:00.397Z,2.08
2022-12-28T10:12:29.988Z,1.90
2022-12-28T10:14:57.671Z,2.20
2022-12-28T10:17:28.892Z,2.03
2022-12-28T10:19:58.299Z,2.25
2022-12-28T10:22:31.157Z,2.35
2022-12-28T10:24:57.852Z,2.08
2022-12-28T10:27:29.610Z,2.15
2022-12-28T10:29:59.984Z,1.83
2022-12-28T10:32:26.691Z,1.98
2022-12-28T10:35:03.559Z,1.88
2022-12-28T10:37:32.377Z,1.70
2022-12-28T10:40:04.084Z,1.63
2022-12-28T10:42:43.553Z,1.67
2022-12-28T10:45:38.722Z,1.88
2022-12-28T10:48:30.883Z,1.73
2022-12-28T10:51:15.967Z,1.50
2022-12-28T10:53:55.080Z,1.83
2022-12-28T10:56:29.941Z,1.90
2022-12-28T10:59:12.596Z,1.98
2022-12-28T11:01:42.175Z,1.50
2022-12-28T11:04:20.651Z,2.28
2022-12-28T11:07:01.460Z,1.77
2022-12-28T11:09:37.491Z,2.00
2022-12-28T11:12:41.799Z,2.22
2022-12-28T11:15:15.033Z,2.17
2022-12-28T11:17:41.908Z,2.30
2022-12-28T11:20:19.051Z,2.30
2022-12-28T11:22:46.934Z,2.03
2022-12-28T11:25:18.813Z,2.53
2022-12-28T11:27:49.027Z,2.33
2022-12-28T11:30:19.279Z,2.33
2022-12-28T11:32:53.364Z,2.55
2022-12-28T11:35:28.345Z,2.70
2022-12-28T11:38:03.291Z,2.93
2022-12-28T11:40:45.226Z,2.38
2022-12-28T11:43:30.583Z,2.30
2022-12-28T11:45:59.444Z,2.30
2022-12-28T11:48:42.092Z,2.80
2022-12-28T11:51:33.260Z,2.35
2022-12-28T11:54:06.308Z,2.58
2022-12-28T11:56:44.969Z,2.95
2022-12-28T11:59:29.137Z,2.85
2022-12-28T12:02:06.849Z,3.00
2022-12-28T12:04:51.564Z,2.67
2022-12-28T12:07:44.855Z,2.83
2022-12-28T12:10:31.127Z,2.72
2022-12-28T12:13:01.316Z,3.05
2022-12-28T12:15:57.180Z,2.85
2022-12-28T12:18:26.879Z,2.65
2022-12-28T12:21:49.341Z,2.70
2022-12-28T12:24:29.802Z,2.35
2022-12-28T12:27:10.282Z,2.15
2022-12-28T12:29:44.462Z,2.40
2022-12-28T12:32:31.250Z,2.63
2022-12-28T12:35:04.918Z,2.85
2022-12-28T12:38:15.024Z,2.65
2022-12-28T12:40:50.422Z,2.30
2022-12-28T12:43:26.261Z,2.38
2022-12-28T12:46:40.537Z,2.33
2022-12-28T12:49:34.252Z,2.75
2022-12-28T12:52:16.243Z,2.53
2022-12-28T12:55:01.897Z,2.63
2022-12-28T12:57:41.481Z,2.80
2022-12-28T13:00:15.288Z,2.50
2022-12-28T13:02:51.956Z,2.40
2022-12-28T13:05:26.770Z,2.25
2022-12-28T13:07:56.639Z,2.40
2022-12-28T13:10:30.297Z,2.60
2022-12-28T13:12:59.312Z,2.25
2022-12-28T13:15:26.361Z,2.35
2022-12-28T13:18:18.177Z,2.03
2022-12-28T13:21:00.121Z,2.50
2022-12-28T13:23:29.072Z,2.03
2022-12-28T13:25:59.436Z,2.17
2022-12-28T13:28:32.404Z,2.47
2022-12-28T13:31:09.372Z,2.35
2022-12-28T13:33:36.183Z,2.10
2022-12-28T13:36:21.131Z,2.20
2022-12-28T13:38:59.260Z,2.22
2022-12-28T13:41:27.401Z,2.30
2022-12-28T13:44:12.713Z,2.25
2022-12-28T13:46:43.308Z,2.33
2022-12-28T13:49:11.502Z,2.30
2022-12-28T13:51:39.672Z,2.28
2022-12-28T13:54:08.572Z,2.28
2022-12-28T13:56:39.612Z,1.80
2022-12-28T13:59:27.809Z,2.03
2022-12-28T14:01:54.990Z,2.03
2022-12-28T14:04:52.079Z,1.60
2022-12-28T14:07:17.848Z,1.65
2022-12-28T14:09:49.813Z,1.83
2022-12-28T14:12:17.849Z,1.98
2022-12-28T14:14:45.962Z,1.98
2022-12-28T14:17:13.637Z,1.77
2022-12-28T14:19:41.665Z,2.38
2022-12-28T14:22:26.928Z,1.65
2022-12-28T14:25:00.486Z,2.05
2022-12-28T14:27:27.622Z,2.00
2022-12-28T14:29:55.480Z,1.90
2022-12-28T14:32:22.639Z,2.83
2022-12-28T14:34:55.602Z,2.15
2022-12-28T14:37:38.044Z,1.90
2022-12-28T14:40:06.906Z,2.17
2022-12-28T14:42:35.428Z,2.15
2022-12-28T14:46:07.755Z,2.38
2022-12-28T14:48:26.627Z,2.08
2022-12-28T14:51:03.325Z,2.17
2022-12-28T14:53:31.303Z,1.90
2022-12-28T14:56:07.095Z,2.03
2022-12-28T14:58:54.746Z,2.20
2022-12-28T15:01:23.964Z,2.53
2022-12-28T15:03:55.100Z,2.78
2022-12-28T15:06:27.261Z,2.83
2022-12-28T15:08:55.736Z,2.42
2022-12-28T15:11:27.402Z,2.50
2022-12-28T15:13:54.122Z,2.50
2022-12-28T15:16:25.437Z,2.35
2022-12-28T15:18:53.251Z,2.47
2022-12-28T15:21:24.061Z,1.98
2022-12-28T15:23:55.333Z,1.80
2022-12-28T15:26:24.093Z,2.15
2022-12-28T15:28:51.228Z,2.30
2022-12-28T15:31:21.171Z,2.03
2022-12-28T15:33:48.941Z,1.90
2022-12-28T15:36:18.606Z,2.00
2022-12-28T15:38:49.348Z,2.33
2022-12-28T15:41:36.119Z,1.88
2022-12-28T15:44:04.708Z,2.15
2022-12-28T15:46:31.684Z,2.13
2022-12-28T15:49:01.270Z,2.63
2022-12-28T15:51:28.176Z,2.90
2022-12-28T15:53:56.209Z,2.08
2022-12-28T15:56:24.443Z,3.05
2022-12-28T15:58:54.159Z,2.90
2022-12-28T16:01:21.890Z,2.17
2022-12-28T16:03:50.409Z,2.30
2022-12-28T16:06:21.184Z,2.53
2022-12-28T16:08:48.650Z,2.10
2022-12-28T16:11:18.379Z,2.45
2022-12-28T16:13:51.689Z,2.58
2022-12-28T16:16:19.182Z,2.53
2022-12-28T16:18:46.107Z,2.63
2022-12-28T16:21:13.097Z,2.80
2022-12-28T16:23:42.370Z,2.40
2022-12-28T16:26:10.749Z,2.38
2022-12-28T16:28:38.061Z,2.53
2022-12-28T16:31:05.577Z,2.97
2022-12-28T16:33:32.724Z,3.38
2022-12-28T16:36:00.109Z,2.53
2022-12-28T16:38:29.870Z,2.58
2022-12-28T16:40:57.263Z,2.70
2022-12-28T16:43:24.376Z,2.75
2022-12-28T16:45:51.664Z,3.05
2022-12-28T16:48:18.462Z,2.58
2022-12-28T16:50:45.117Z,4.30
2022-12-28T16:53:12.000Z,3.53
2022-12-28T16:55:41.402Z,3.10
2022-12-28T16:58:08.944Z,3.08
2022-12-28T17:00:35.845Z,2.80
2022-12-28T17:03:02.729Z,2.35
2022-12-28T17:05:35.597Z,2.70
2022-12-28T17:08:04.083Z,2.70
2022-12-28T17:10:31.670Z,2.67
2022-12-28T17:12:58.380Z,2.33
2022-12-28T17:15:25.186Z,2.80
2022-12-28T17:17:52.077Z,2.88
2022-12-28T17:20:18.925Z,2.05
2022-12-28T17:22:45.683Z,2.90
2022-12-28T17:25:12.686Z,2.67
2022-12-28T17:27:39.364Z,2.50
2022-12-28T17:30:06.412Z,3.10
2022-12-28T17:32:33.571Z,2.88
2022-12-28T17:35:00.248Z,3.10
2022-12-28T17:37:26.978Z,3.88
2022-12-28T17:39:53.674Z,2.90
2022-12-28T17:42:20.389Z,4.25
2022-12-28T17:44:48.783Z,3.17
2022-12-28T17:47:15.458Z,3.03
2022-12-28T17:49:44.762Z,3.22
2022-12-28T17:52:13.755Z,2.50
2022-12-28T17:54:42.028Z,2.78
2022-12-28T17:57:10.034Z,2.72
2022-12-28T17:59:36.815Z,2.65
2022-12-28T18:02:05.298Z,3.20
2022-12-28T18:04:32.285Z,3.35
2022-12-28T18:06:59.269Z,3.70
2022-12-28T18:09:28.117Z,2.88
2022-12-28T18:11:55.692Z,2.40
2022-12-28T18:14:22.936Z,3.42
2022-12-28T18:16:50.054Z,2.95
2022-12-28T18:19:16.936Z,3.42
2022-12-28T18:21:43.825Z,2.95
2022-12-28T18:24:13.550Z,3.20
2022-12-28T18:26:40.337Z,3.25
2022-12-28T18:29:07.164Z,3.13
2022-12-28T18:31:34.165Z,3.40
2022-12-28T18:34:02.717Z,3.40
2022-12-28T18:36:29.595Z,3.08
2022-12-28T18:38:56.508Z,3.15
2022-12-28T18:41:24.746Z,3.33
2022-12-28T18:43:54.192Z,3.13
2022-12-28T18:46:21.420Z,3.25
2022-12-28T18:48:48.377Z,3.20
2022-12-28T18:51:17.735Z,3.50
2022-12-28T18:53:45.636Z,3.67
2022-12-28T18:56:15.237Z,3.17
2022-12-28T18:58:43.099Z,3.40
2022-12-28T19:01:56.029Z,2.90
2022-12-28T19:04:07.958Z,3.50
2022-12-28T19:06:35.876Z,3.20
2022-12-28T19:09:04.663Z,3.47
2022-12-28T19:11:31.755Z,3.45
2022-12-28T19:13:58.455Z,3.60
2022-12-28T19:16:31.162Z,3.47
2022-12-28T19:18:59.308Z,4.00
2022-12-28T19:21:28.858Z,6.88
2022-12-28T19:23:58.074Z,3.05
2022-12-28T19:26:25.843Z,2.85
2022-12-28T19:28:52.873Z,2.70
2022-12-28T19:31:19.597Z,2.75
2022-12-28T19:33:46.803Z,2.67
2022-12-28T19:36:13.617Z,2.78
2022-12-28T19:38:43.413Z,3.60
2022-12-28T19:41:15.595Z,2.88
2022-12-28T19:43:43.752Z,3.42
2022-12-28T19:46:14.657Z,3.20
2022-12-28T19:48:41.578Z,3.00
2022-12-28T19:51:09.387Z,3.30
2022-12-28T19:53:37.506Z,2.97
2022-12-28T19:56:07.696Z,3.35
2022-12-28T19:58:36.597Z,3.28
2022-12-28T20:01:05.900Z,3.03
2022-12-28T20:03:32.939Z,2.75
2022-12-28T20:06:11.556Z,3.03
2022-12-28T20:08:39.135Z,2.78
2022-12-28T20:11:06.934Z,2.47
2022-12-28T20:13:38.484Z,3.03
2022-12-28T20:16:05.587Z,3.20
2022-12-28T20:18:32.560Z,3.28
2022-12-28T20:21:21.068Z,3.53
2022-12-28T20:23:53.565Z,3.45
2022-12-28T20:26:22.202Z,3.10
2022-12-28T20:28:50.502Z,3.13
2022-12-28T20:31:17.971Z,3.78
2022-12-28T20:33:45.372Z,3.20
2022-12-28T20:36:18.222Z,3.63
2022-12-28T20:38:45.586Z,3.65
2022-12-28T20:41:32.918Z,3.78
2022-12-28T20:44:00.940Z,3.33
2022-12-28T20:46:28.582Z,3.58
2022-12-28T20:48:56.249Z,3.13
2022-12-28T20:51:22.975Z,3.65
2022-12-28T20:53:50.067Z,3.25
2022-12-28T20:56:17.529Z,3.72
2022-12-28T20:58:44.276Z,3.78
2022-12-28T21:01:13.715Z,4.32
2022-12-28T21:03:40.971Z,3.85
2022-12-28T21:06:08.219Z,3.65
2022-12-28T21:08:35.393Z,4.32
2022-12-28T21:11:02.973Z,4.35
2022-12-28T21:13:30.347Z,3.38
2022-12-28T21:15:57.270Z,4.57
2022-12-28T21:18:24.696Z,3.97
2022-12-28T21:20:57.405Z,3.95
2022-12-28T21:23:24.146Z,4.03
2022-12-28T21:25:50.957Z,4.07
2022-12-28T21:28:19.563Z,4.60
2022-12-28T21:30:53.527Z,3.60
2022-12-28T21:33:20.424Z,3.83
2022-12-28T21:36:07.271Z,3.50
2022-12-28T21:38:37.527Z,3.22
2022-12-28T21:41:08.217Z,3.58
2022-12-28T21:43:35.285Z,3.08
2022-12-28T21:46:05.179Z,3.78
2022-12-28T21:48:34.244Z,3.45
2022-12-28T21:51:29.410Z,4.05
2022-12-28T21:53:56.244Z,3.85
2022-12-28T21:56:26.571Z,4.32
2022-12-28T21:58:55.365Z,4.47
2022-12-28T22:01:43.844Z,4.03
2022-12-28T22:04:38.378Z,4.78
2022-12-28T22:07:07.094Z,4.90
2022-12-28T22:09:53.040Z,4.28
2022-12-28T22:12:34.797Z,4.88
2022-12-28T22:15:33.719Z,5.03
2022-12-28T22:18:06.033Z,4.72
2022-12-28T22:20:35.580Z,5.40
2022-12-28T22:23:09.766Z,5.50
2022-12-28T22:25:37.430Z,4.97
2022-12-28T22:28:05.438Z,5.95
2022-12-28T22:30:34.205Z,5.82
2022-12-28T22:33:01.021Z,5.97
2022-12-28T22:35:31.477Z,5.90
2022-12-28T22:37:58.387Z,5.88
2022-12-28T22:40:25.447Z,5.82
2022-12-28T22:42:52.482Z,6.18
2022-12-28T22:45:21.689Z,5.88
2022-12-28T22:47:49.127Z,5.32
2022-12-28T22:50:18.074Z,4.82
2022-12-28T22:52:45.992Z,5.65
2022-12-28T22:55:12.798Z,4.72
2022-12-28T22:57:39.920Z,5.07
2022-12-28T23:00:10.451Z,5.00
2022-12-28T23:02:42.132Z,4.78
2022-12-28T23:05:09.329Z,4.43
2022-12-28T23:07:36.478Z,3.90
2022-12-28T23:10:04.281Z,4.72
2022-12-28T23:12:31.184Z,3.97
2022-12-28T23:15:16.346Z,3.95
2022-12-28T23:17:43.143Z,4.60
2022-12-28T23:20:30.910Z,4.32
2022-12-28T23:23:16.621Z,4.95
2022-12-28T23:26:02.561Z,4.60
2022-12-28T23:28:29.278Z,4.78
2022-12-28T23:30:56.627Z,4.57
2022-12-28T23:33:23.884Z,5.63
2022-12-28T23:35:50.672Z,4.70
2022-12-28T23:38:17.624Z,5.38
2022-12-28T23:40:44.715Z,5.45
2022-12-28T23:43:11.423Z,5.43
2022-12-28T23:45:38.349Z,5.72
2022-12-28T23:48:05.711Z,5.10
2022-12-28T23:50:32.863Z,5.82
2022-12-28T23:52:59.555Z,5.72
2022-12-28T23:55:26.328Z,5.43
2022-12-28T23:57:53.078Z,5.72
